地図

経路データ

SID SEASON NUMBER BASIN SUBBASIN NAME ISO_TIME NATURE LAT LON WMO_WIND WMO_PRES WMO_AGENCY TRACK_TYPE DIST2LAND LANDFALL IFLAG USA_AGENCY USA_ATCF_ID USA_LAT USA_LON USA_RECORD USA_STATUS USA_WIND USA_PRES USA_SSHS USA_R34_NE USA_R34_SE USA_R34_SW USA_R34_NW USA_R50_NE USA_R50_SE USA_R50_SW USA_R50_NW USA_R64_NE USA_R64_SE USA_R64_SW USA_R64_NW USA_POCI USA_ROCI USA_RMW USA_EYE TOKYO_LAT TOKYO_LON TOKYO_GRADE TOKYO_WIND TOKYO_PRES TOKYO_R50_DIR TOKYO_R50_LONG TOKYO_R50_SHORT TOKYO_R30_DIR TOKYO_R30_LONG TOKYO_R30_SHORT TOKYO_LAND CMA_LAT CMA_LON CMA_CAT CMA_WIND CMA_PRES HKO_LAT HKO_LON HKO_CAT HKO_WIND HKO_PRES NEWDELHI_LAT NEWDELHI_LON NEWDELHI_GRADE NEWDELHI_WIND NEWDELHI_PRES NEWDELHI_CI NEWDELHI_DP NEWDELHI_POCI REUNION_LAT REUNION_LON REUNION_TYPE REUNION_WIND REUNION_PRES REUNION_TNUM REUNION_CI REUNION_RMW REUNION_R34_NE REUNION_R34_SE REUNION_R34_SW REUNION_R34_NW REUNION_R50_NE REUNION_R50_SE REUNION_R50_SW REUNION_R50_NW REUNION_R64_NE REUNION_R64_SE REUNION_R64_SW REUNION_R64_NW BOM_LAT BOM_LON BOM_TYPE BOM_WIND BOM_PRES BOM_TNUM BOM_CI BOM_RMW BOM_R34_NE BOM_R34_SE BOM_R34_SW BOM_R34_NW BOM_R50_NE BOM_R50_SE BOM_R50_SW BOM_R50_NW BOM_R64_NE BOM_R64_SE BOM_R64_SW BOM_R64_NW BOM_ROCI BOM_POCI BOM_EYE BOM_POS_METHOD BOM_PRES_METHOD NADI_LAT NADI_LON NADI_CAT NADI_WIND NADI_PRES WELLINGTON_LAT WELLINGTON_LON WELLINGTON_WIND WELLINGTON_PRES DS824_LAT DS824_LON DS824_STAGE DS824_WIND DS824_PRES TD9636_LAT TD9636_LON TD9636_STAGE TD9636_WIND TD9636_PRES TD9635_LAT TD9635_LON TD9635_WIND TD9635_PRES TD9635_ROCI NEUMANN_LAT NEUMANN_LON NEUMANN_CLASS NEUMANN_WIND NEUMANN_PRES MLC_LAT MLC_LON MLC_CLASS MLC_WIND MLC_PRES USA_GUST BOM_GUST BOM_GUST_PER REUNION_GUST REUNION_GUST_PER USA_SEAHGT USA_SEARAD_NE USA_SEARAD_SE USA_SEARAD_SW USA_SEARAD_NW STORM_SPEED STORM_DIR
1994202N11238 1994 52 EP MM GILMA 1994-07-21 06:00:00 TS 11.0000 -121.900 25 1008 hurdat_epa main 1835 1835 O_____________ hurdat_epa EP071994 11.0000 -121.900 TD 25 1008 -1 22 276
1994202N11238 1994 52 EP MM GILMA 1994-07-21 09:00:00 TS 11.1111 -123.015 main 1907 1907 P_____________ EP071994 11.1111 -123.015 TD 27 1007 -1 21 276
1994202N11238 1994 52 EP MM GILMA 1994-07-21 12:00:00 TS 11.2000 -124.000 30 1007 hurdat_epa main 1963 1963 O_____________ hurdat_epa EP071994 11.2000 -124.000 TD 30 1007 -1 17 275
1994202N11238 1994 52 EP MM GILMA 1994-07-21 15:00:00 TS 11.2570 -124.768 main 2010 2010 P_____________ EP071994 11.2570 -124.768 TD 30 1006 -1 14 274
1994202N11238 1994 52 EP MM GILMA 1994-07-21 18:00:00 TS 11.3000 -125.400 30 1006 hurdat_epa main 2052 2052 O_____________ hurdat_epa EP071994 11.3000 -125.400 TD 30 1006 -1 12 275
1994202N11238 1994 52 EP MM GILMA 1994-07-21 21:00:00 TS 11.3648 -126.022 main 2088 2088 P_____________ EP071994 11.3648 -126.022 TD 32 1005 -1 12 275
1994202N11238 1994 52 EP MM GILMA 1994-07-22 00:00:00 TS 11.4000 -126.600 35 1004 hurdat_epa main 2132 2132 O_____________ hurdat_epa EP071994 11.4000 -126.600 TS 35 1004 0 11 270
1994202N11238 1994 52 EP MM GILMA 1994-07-22 03:00:00 TS 11.3647 -127.128 main 2170 2170 P_____________ EP071994 11.3647 -127.128 TS 40 1002 0 11 265
1994202N11238 1994 52 EP MM GILMA 1994-07-22 06:00:00 TS 11.3000 -127.700 45 1000 hurdat_epa main 2224 2224 O_____________ hurdat_epa EP071994 11.3000 -127.700 TS 45 1000 0 13 263
1994202N11238 1994 52 EP MM GILMA 1994-07-22 09:00:00 TS 11.2200 -128.413 main 2287 2287 P_____________ EP071994 11.2200 -128.413 TS 50 997 0 15 266
1994202N11238 1994 52 EP MM GILMA 1994-07-22 12:00:00 TS 11.2000 -129.200 55 994 hurdat_epa main 2350 2350 O_____________ hurdat_epa EP071994 11.2000 -129.200 TS 55 994 0 15 273
1994202N11238 1994 52 EP MM GILMA 1994-07-22 15:00:00 TS 11.3123 -129.985 main 2408 2408 P_____________ EP071994 11.3123 -129.985 TS 57 992 0 16 281
1994202N11238 1994 52 EP MM GILMA 1994-07-22 18:00:00 TS 11.5000 -130.800 60 991 hurdat_epa main 2448 2448 O_____________ hurdat_epa EP071994 11.5000 -130.800 TS 60 991 0 17 284
1994202N11238 1994 52 EP MM GILMA 1994-07-22 21:00:00 TS 11.7149 -131.657 main 2495 2494 P_____________ EP071994 11.7149 -131.657 TS 62 989 0 17 284
1994202N11238 1994 52 EP MM GILMA 1994-07-23 00:00:00 TS 11.9000 -132.500 65 987 hurdat_epa main 2531 2457 O_____________ hurdat_epa EP071994 11.9000 -132.500 HU 65 987 1 16 280
1994202N11238 1994 52 EP MM GILMA 1994-07-23 03:00:00 TS 11.9797 -133.265 main 2447 2377 P_____________ EP071994 11.9797 -133.265 HU 70 982 1 15 274
1994202N11238 1994 52 EP MM GILMA 1994-07-23 06:00:00 TS 12.0000 -134.000 75 978 hurdat_epa main 2377 2307 O_____________ hurdat_epa EP071994 12.0000 -134.000 HU 75 978 1 14 271
1994202N11238 1994 52 EP MM GILMA 1994-07-23 09:00:00 TS 11.9997 -134.735 main 2307 2227 P_____________ EP071994 11.9997 -134.735 HU 82 973 1 15 270
1994202N11238 1994 52 EP MM GILMA 1994-07-23 12:00:00 TS 12.0000 -135.500 90 968 hurdat_epa main 2227 2148 O_____________ hurdat_epa EP071994 12.0000 -135.500 HU 90 968 2 16 272
1994202N11238 1994 52 EP MM GILMA 1994-07-23 15:00:00 TS 12.0424 -136.335 main 2148 2055 P_____________ EP071994 12.0424 -136.335 HU 102 958 3 17 273
1994202N11238 1994 52 EP MM GILMA 1994-07-23 18:00:00 TS 12.1000 -137.200 115 948 hurdat_epa main 2055 1972 O_____________ hurdat_epa EP071994 12.1000 -137.200 HU 115 948 4 17 274
1994202N11238 1994 52 EP MM GILMA 1994-07-23 21:00:00 TS 12.1574 -138.065 main 1963 1885 P_____________ EP071994 12.1574 -138.065 HU 122 941 4 17 273
1994202N11238 1994 52 EP MM GILMA 1994-07-24 00:00:00 TS 12.2000 -138.900 130 935 hurdat_epa main 1885 1818 O_____________ hurdat_epa EP071994 12.2000 -138.900 HU 130 935 4 16 272
1994202N11238 1994 52 EP MM GILMA 1994-07-24 03:00:00 TS 12.2222 -139.672 main 1809 1742 P_____________ EP071994 12.2222 -139.672 HU 132 4 15 270
1994202N11238 1994 52 EP CP GILMA 1994-07-24 06:00:00 TS 12.2000 -140.400 135 hurdat_epa main 1742 1682 O_____________ hurdat_epa EP071994 12.2000 -140.400 HU 135 4 14 265
1994202N11238 1994 52 EP CP GILMA 1994-07-24 09:00:00 TS 12.0884 -141.098 main 1682 1624 P_____________ EP071994 12.0922 -141.100 HU 135 4 14 262
1994202N11238 1994 52 EP CP GILMA 1994-07-24 12:00:00 TS 12.0000 -141.800 135 hurdat_epa main 1624 1560 O_____________ hurdat_epa EP071994 12.0000 -141.800 HU 135 4 14 268
1994202N11238 1994 52 EP CP GILMA 1994-07-24 15:00:00 TS 12.0424 -142.550 main 1560 1482 P_____________ EP071994 12.0424 -142.550 HU 137 5 15 274
1994202N11238 1994 52 EP CP GILMA 1994-07-24 18:00:00 TS 12.1000 -143.300 140 920 hurdat_epa main 1482 1421 O_____________ hurdat_epa EP071994 12.1000 -143.300 HU 140 920 5 14 271
1994202N11238 1994 52 EP CP GILMA 1994-07-24 21:00:00 TS 12.0573 -144.015 main 1421 1368 P_____________ EP071994 12.0573 -144.015 HU 140 5 14 266
1994202N11238 1994 52 EP CP GILMA 1994-07-25 00:00:00 TS 12.0000 -144.700 140 hurdat_epa main 1368 1317 O_____________ hurdat_epa EP071994 12.0000 -144.700 HU 140 5 13 267
1994202N11238 1994 52 EP CP GILMA 1994-07-25 03:00:00 TS 11.9921 -145.335 main 1317 1261 P_____________ EP071994 11.9921 -145.335 HU 140 5 13 270
1994202N11238 1994 52 EP CP GILMA 1994-07-25 06:00:00 TS 12.0000 -146.000 140 hurdat_epa main 1261 1206 O_____________ hurdat_epa EP071994 12.0000 -146.000 HU 140 5 14 270
1994202N11238 1994 52 EP CP GILMA 1994-07-25 09:00:00 TS 12.0000 -146.778 main 1198 1137 P_____________ EP071994 12.0000 -146.778 HU 120 4 16 270
1994202N11238 1994 52 EP CP GILMA 1994-07-25 12:00:00 TS 12.0000 -147.600 100 hurdat_epa main 1137 1080 O_____________ hurdat_epa EP071994 12.0000 -147.600 HU 100 3 16 269
1994202N11238 1994 52 EP CP GILMA 1994-07-25 15:00:00 TS 11.9848 -148.400 main 1080 1026 P_____________ EP071994 11.9848 -148.400 HU 105 3 16 270
1994202N11238 1994 52 EP CP GILMA 1994-07-25 18:00:00 TS 12.0000 -149.200 110 hurdat_epa main 1026 967 O_____________ hurdat_epa EP071994 12.0000 -149.200 HU 110 3 16 274
1994202N11238 1994 52 EP CP GILMA 1994-07-25 21:00:00 TS 12.0924 -150.015 main 967 912 P_____________ EP071994 12.0924 -150.015 HU 107 3 16 277
1994202N11238 1994 52 EP CP GILMA 1994-07-26 00:00:00 TS 12.2000 -150.800 105 hurdat_epa main 912 864 O_____________ hurdat_epa EP071994 12.2000 -150.800 HU 105 3 15 277
1994202N11238 1994 52 EP CP GILMA 1994-07-26 03:00:00 TS 12.2723 -151.530 main 864 828 P_____________ EP071994 12.2723 -151.530 HU 102 3 14 274
1994202N11238 1994 52 EP CP GILMA 1994-07-26 06:00:00 TS 12.3000 -152.200 100 hurdat_epa main 828 801 O_____________ hurdat_epa EP071994 12.3000 -152.200 HU 100 3 13 269
1994202N11238 1994 52 EP CP GILMA 1994-07-26 09:00:00 TS 12.2573 -152.823 main 801 789 P_____________ EP071994 12.2573 -152.823 HU 95 2 12 265
1994202N11238 1994 52 EP CP GILMA 1994-07-26 12:00:00 TS 12.2000 -153.400 90 hurdat_epa main 789 774 O_____________ hurdat_epa EP071994 12.2000 -153.400 HU 90 2 11 267
1994202N11238 1994 52 EP CP GILMA 1994-07-26 15:00:00 TS 12.1998 -153.957 main 771 760 P_____________ EP071994 12.1998 -153.957 HU 85 2 11 270
1994202N11238 1994 52 EP CP GILMA 1994-07-26 18:00:00 TS 12.2000 -154.500 80 hurdat_epa main 760 753 O_____________ hurdat_epa EP071994 12.2000 -154.500 HU 80 1 11 268
1994202N11238 1994 52 EP CP GILMA 1994-07-26 21:00:00 TS 12.1573 -155.043 main 753 752 P_____________ EP071994 12.1573 -155.043 HU 70 1 11 265
1994202N11238 1994 52 EP CP GILMA 1994-07-27 00:00:00 TS 12.1000 -155.600 60 hurdat_epa main 761 761 O_____________ hurdat_epa EP071994 12.1000 -155.600 TS 60 0 11 265
1994202N11238 1994 52 EP CP GILMA 1994-07-27 03:00:00 TS 12.0574 -156.192 main 763 763 P_____________ EP071994 12.0574 -156.192 TS 60 0 12 265
1994202N11238 1994 52 EP CP GILMA 1994-07-27 06:00:00 TS 12.0000 -156.800 60 hurdat_epa main 781 781 O_____________ hurdat_epa EP071994 12.0000 -156.800 TS 60 0 12 261
1994202N11238 1994 52 EP CP GILMA 1994-07-27 09:00:00 TS 11.8695 -157.352 main 804 804 P_____________ EP071994 11.8695 -157.348 TS 60 0 12 260
1994202N11238 1994 52 EP CP GILMA 1994-07-27 12:00:00 TS 11.8000 -158.000 60 hurdat_epa main 832 832 O_____________ hurdat_epa EP071994 11.8000 -158.000 TS 60 0 15 271
1994202N11238 1994 52 EP CP GILMA 1994-07-27 15:00:00 TS 11.9052 -158.884 main 855 853 P_____________ EP071994 11.9053 -158.912 TS 55 0 18 279
1994202N11238 1994 52 EP CP GILMA 1994-07-27 18:00:00 TS 12.1000 -159.850 50 hurdat_epa main 884 884 O_____________ hurdat_epa EP071994 12.1000 -159.900 TS 50 0 19 282
1994202N11238 1994 52 EP CP GILMA 1994-07-27 21:00:00 TS 12.2997 -160.736 main 912 912 P_____________ EP071994 12.2996 -160.765 TS 50 0 18 283
1994202N11238 1994 52 EP CP GILMA 1994-07-28 00:00:00 TS 12.5000 -161.600 50 hurdat_epa main 954 954 O_____________ hurdat_epa EP071994 12.5000 -161.600 TS 50 0 17 282
1994202N11238 1994 52 EP CP GILMA 1994-07-28 03:00:00 TS 12.6570 -162.439 main 997 997 P_____________ EP071994 12.6571 -162.435 TS 50 0 17 280
1994202N11238 1994 52 EP CP GILMA 1994-07-28 06:00:00 TS 12.8000 -163.300 50 hurdat_epa main 1059 1059 O_____________ hurdat_epa EP071994 12.8000 -163.300 TS 50 0 18 279
1994202N11238 1994 52 EP CP GILMA 1994-07-28 09:00:00 TS 12.9423 -164.235 main 1119 1114 P_____________ EP071994 12.9423 -164.235 TS 50 0 19 279
1994202N11238 1994 52 EP CP GILMA 1994-07-28 12:00:00 TS 13.1000 -165.200 50 hurdat_epa main 1148 1148 O_____________ hurdat_epa EP071994 13.1000 -165.200 TS 50 0 19 281
1994202N11238 1994 52 EP CP GILMA 1994-07-28 15:00:00 TS 13.3071 -166.150 main 1179 1179 P_____________ EP071994 13.3071 -166.150 TS 52 0 19 282
1994202N11238 1994 52 EP CP GILMA 1994-07-28 18:00:00 TS 13.5000 -167.100 55 hurdat_epa main 1225 1225 O_____________ hurdat_epa EP071994 13.5000 -167.100 TS 55 0 19 279
1994202N11238 1994 52 EP CP GILMA 1994-07-28 21:00:00 TS 13.6149 -168.071 main 1286 1286 P_____________ EP071994 13.6148 -168.065 TS 50 0 19 276
1994202N11238 1994 52 EP CP GILMA 1994-07-29 00:00:00 TS 13.7000 -169.000 45 hurdat_epa main 1344 1344 O_____________ hurdat_epa EP071994 13.7000 -169.000 TS 45 0 18 276
1994202N11238 1994 52 EP CP GILMA 1994-07-29 03:00:00 TS 13.7924 -169.882 main 1407 1407 P_____________ EP071994 13.7926 -169.925 TS 45 0 16 277
1994202N11238 1994 52 EP CP GILMA 1994-07-29 06:00:00 TS 13.9000 -170.625 45 hurdat_epa main 1457 1457 O_____________ hurdat_epa EP071994 13.9000 -170.700 TS 45 0 13 279
1994202N11238 1994 52 EP CP GILMA 1994-07-29 09:00:00 TS 13.9895 -171.152 main 1500 1500 P_____________ EP071994 13.9894 -171.195 TS 45 0 10 288
1994202N11238 1994 52 EP CP GILMA 1994-07-29 12:00:00 TS 14.2000 -171.600 45 hurdat_epa main 1521 1521 O_____________ hurdat_epa EP071994 14.2000 -171.600 TS 45 0 11 304
1994202N11238 1994 52 EP CP GILMA 1994-07-29 15:00:00 TS 14.6173 -172.126 main 1538 1538 P_____________ EP071994 14.6174 -172.120 TS 42 0 15 313
1994202N11238 1994 52 EP CP GILMA 1994-07-29 18:00:00 TS 15.2000 -172.700 40 hurdat_epa main 1556 1556 O_____________ hurdat_epa EP071994 15.2000 -172.700 TS 40 0 18 317
1994202N11238 1994 52 EP CP GILMA 1994-07-29 21:00:00 TS 15.8927 -173.370 main 1583 1578 P_____________ EP071994 15.8927 -173.365 TS 37 0 19 318
1994202N11238 1994 52 EP CP GILMA 1994-07-30 00:00:00 TS 16.6000 -174.000 35 hurdat_epa main 1606 1606 O_____________ hurdat_epa EP071994 16.6000 -174.000 TS 35 0 17 322
1994202N11238 1994 52 EP CP GILMA 1994-07-30 03:00:00 TS 17.2248 -174.475 main 1629 1625 P_____________ EP071994 17.2248 -174.518 TS 35 0 14 324
1994202N11238 1994 52 EP CP GILMA 1994-07-30 06:00:00 TS 17.7000 -174.825 35 hurdat_epa main 1639 1639 O_____________ hurdat_epa EP071994 17.7000 -174.900 TS 35 0 10 321
1994202N11238 1994 52 EP CP GILMA 1994-07-30 09:00:00 TS 17.9674 -175.102 main 1659 1659 P_____________ EP071994 17.9673 -175.145 TS 35 0 6 312
1994202N11238 1994 52 EP CP GILMA 1994-07-30 12:00:00 TS 18.1000 -175.300 35 hurdat_epa main 1675 1675 O_____________ hurdat_epa EP071994 18.1000 -175.300 TS 35 0 4 306
1994202N11238 1994 52 EP CP GILMA 1994-07-30 15:00:00 TS 18.2149 -175.456 main 1692 1689 P_____________ EP071994 18.2149 -175.450 TS 32 -1 3 305
1994202N11238 1994 52 EP CP GILMA 1994-07-30 18:00:00 TS 18.3000 -175.600 30 hurdat_epa main 1699 1699 O_____________ hurdat_epa EP071994 18.3000 -175.600 TD 30 -1 4 300
1994202N11238 1994 52 EP CP GILMA 1994-07-30 21:00:00 TS 18.3951 -175.786 main 1716 1716 P_____________ EP071994 18.3951 -175.787 TD 27 -1 4 298
1994202N11238 1994 52 EP CP GILMA 1994-07-31 00:00:00 TS 18.5000 -176.000 25 hurdat_epa main 1733 O_____________ hurdat_epa EP071994 18.5000 -176.000 TD 25 -1 5 297

IBTrACS Databaseについて

本データベースは、米国NOAAが公開する1842年以降の世界の熱帯低気圧のベストトラックデータアーカイブInternational Best Track Archive for Climate Stewardship (IBTrACS)を、ウェブで閲覧しやすい形式に変換したものです。

最終更新日:2021-12-03